createdAt,value
2023-04-30T00:02:10.589Z,5.15
2023-04-30T00:04:36.927Z,4.82
2023-04-30T00:07:03.356Z,4.96
2023-04-30T00:09:29.657Z,4.83
2023-04-30T00:11:55.971Z,4.69
2023-04-30T00:14:22.294Z,4.88
2023-04-30T00:16:48.632Z,4.98
2023-04-30T00:19:15.341Z,4.88
2023-04-30T00:21:41.646Z,4.65
2023-04-30T00:24:07.958Z,4.71
2023-04-30T00:26:34.279Z,4.45
2023-04-30T00:29:00.604Z,4.84
2023-04-30T00:31:26.920Z,5.13
2023-04-30T00:33:53.232Z,4.92
2023-04-30T00:36:19.582Z,4.96
2023-04-30T00:38:45.897Z,4.87
2023-04-30T00:41:12.197Z,5.20
2023-04-30T00:43:38.513Z,4.82
2023-04-30T00:46:04.942Z,5.05
2023-04-30T00:48:31.249Z,4.76
2023-04-30T00:50:57.570Z,5.32
2023-04-30T00:53:23.870Z,5.32
2023-04-30T00:55:50.182Z,5.63
2023-04-30T00:58:16.521Z,5.26
2023-04-30T01:00:42.820Z,5.32
2023-04-30T01:03:09.167Z,4.94
2023-04-30T01:05:35.561Z,4.97
2023-04-30T01:08:01.851Z,5.24
2023-04-30T01:10:28.152Z,5.20
2023-04-30T01:12:54.507Z,5.15
2023-04-30T01:15:20.814Z,5.36
2023-04-30T01:17:47.147Z,5.09
2023-04-30T01:20:13.489Z,5.17
2023-04-30T01:22:39.789Z,5.27
2023-04-30T01:25:06.121Z,5.01
2023-04-30T01:27:32.442Z,4.92
2023-04-30T01:29:58.750Z,4.89
2023-04-30T01:32:25.088Z,5.24
2023-04-30T01:34:51.412Z,5.16
2023-04-30T01:37:17.706Z,5.06
2023-04-30T01:39:44.026Z,4.98
2023-04-30T01:42:10.431Z,5.16
2023-04-30T01:44:36.752Z,5.16
2023-04-30T01:47:03.046Z,4.96
2023-04-30T01:49:29.371Z,4.93
2023-04-30T01:51:55.670Z,4.85
2023-04-30T01:54:21.975Z,5.22
2023-04-30T01:56:48.301Z,5.17
2023-04-30T01:59:14.610Z,5.19
2023-04-30T02:01:41.019Z,4.87
2023-04-30T02:04:07.499Z,5.05
2023-04-30T02:06:33.901Z,5.29
2023-04-30T02:09:00.261Z,5.02
2023-04-30T02:11:26.582Z,5.52
2023-04-30T02:13:52.892Z,5.62
2023-04-30T02:16:19.219Z,5.58
2023-04-30T02:18:45.584Z,5.94
2023-04-30T02:21:11.878Z,6.14
2023-04-30T02:23:38.165Z,6.37
2023-04-30T02:26:04.486Z,6.41
2023-04-30T02:28:30.777Z,6.30
2023-04-30T02:30:57.061Z,6.02
2023-04-30T02:33:23.378Z,6.19
2023-04-30T02:35:49.683Z,6.37
2023-04-30T02:38:15.977Z,6.34
2023-04-30T02:40:42.298Z,6.64
2023-04-30T02:43:08.615Z,6.51
2023-04-30T02:45:34.954Z,6.27
2023-04-30T02:48:01.418Z,6.83
2023-04-30T02:50:27.793Z,6.47
2023-04-30T02:52:54.081Z,6.31
2023-04-30T02:55:20.419Z,6.52
2023-04-30T02:57:46.729Z,6.83
2023-04-30T03:00:13.047Z,6.84
2023-04-30T03:02:39.511Z,6.98
2023-04-30T03:05:05.877Z,6.80
2023-04-30T03:07:32.183Z,6.90
2023-04-30T03:09:58.510Z,7.08
2023-04-30T03:12:24.828Z,7.14
2023-04-30T03:14:51.139Z,6.99
2023-04-30T03:17:17.454Z,7.12
2023-04-30T03:19:43.751Z,7.11
2023-04-30T03:22:10.067Z,7.62
2023-04-30T03:24:36.394Z,7.76
2023-04-30T03:27:02.695Z,7.60
2023-04-30T03:29:29.011Z,7.51
2023-04-30T03:31:55.980Z,7.60
2023-04-30T03:34:22.400Z,7.61
2023-04-30T03:36:48.693Z,7.95
2023-04-30T03:39:15.020Z,7.32
2023-04-30T03:41:41.315Z,7.59
2023-04-30T03:44:07.616Z,7.94
2023-04-30T03:46:33.997Z,7.83
2023-04-30T03:49:00.325Z,8.04
2023-04-30T03:51:26.622Z,8.13
2023-04-30T03:53:52.985Z,8.25
2023-04-30T03:56:19.299Z,8.32
2023-04-30T03:58:45.596Z,8.54
2023-04-30T04:01:11.937Z,8.63
2023-04-30T04:03:38.261Z,9.03
2023-04-30T04:06:04.725Z,8.69
2023-04-30T04:08:31.087Z,9.27
2023-04-30T04:10:57.386Z,9.61
2023-04-30T04:13:23.685Z,9.14
2023-04-30T04:15:50.043Z,9.26
2023-04-30T04:18:16.420Z,9.21
2023-04-30T04:20:42.726Z,9.26
2023-04-30T04:23:09.043Z,9.19
2023-04-30T04:25:35.359Z,9.14
2023-04-30T04:28:01.667Z,9.04
2023-04-30T04:30:27.993Z,9.00
2023-04-30T04:32:54.349Z,9.10
2023-04-30T04:35:20.691Z,8.93
2023-04-30T04:37:47.030Z,8.97
2023-04-30T04:40:13.366Z,9.11
2023-04-30T04:42:39.660Z,9.00
2023-04-30T04:45:05.982Z,8.78
2023-04-30T04:47:32.288Z,9.23
2023-04-30T04:49:58.609Z,8.52
2023-04-30T04:52:24.925Z,9.17
2023-04-30T04:54:51.222Z,9.16
2023-04-30T04:57:17.520Z,9.05
2023-04-30T04:59:43.875Z,8.83
2023-04-30T05:02:10.408Z,8.75
2023-04-30T05:04:36.823Z,8.93
2023-04-30T05:07:03.142Z,8.93
2023-04-30T05:09:29.446Z,9.15
2023-04-30T05:11:55.744Z,9.10
2023-04-30T05:14:22.061Z,9.02
2023-04-30T05:16:48.423Z,8.95
2023-04-30T05:19:14.799Z,9.01
2023-04-30T05:21:41.170Z,9.03
2023-04-30T05:24:07.452Z,9.05
2023-04-30T05:26:33.754Z,8.50
2023-04-30T05:29:00.163Z,9.04
2023-04-30T05:31:26.494Z,8.89
2023-04-30T05:33:52.808Z,9.19
2023-04-30T05:36:19.132Z,9.17
2023-04-30T05:38:45.425Z,8.70
2023-04-30T05:41:11.725Z,9.03
2023-04-30T05:43:38.039Z,8.70
2023-04-30T05:46:04.402Z,8.81
2023-04-30T05:48:30.791Z,8.97
2023-04-30T05:50:57.083Z,9.24
2023-04-30T05:53:23.372Z,9.80
2023-04-30T05:55:49.670Z,9.12
2023-04-30T05:58:15.978Z,9.41
2023-04-30T06:00:42.271Z,9.51
2023-04-30T06:03:09.664Z,9.42
2023-04-30T06:05:36.424Z,9.45
2023-04-30T06:08:02.779Z,9.16
2023-04-30T06:10:29.076Z,9.26
2023-04-30T06:12:55.634Z,9.43
2023-04-30T06:15:22.157Z,9.04
2023-04-30T06:17:48.507Z,9.24
2023-04-30T06:20:14.852Z,9.34
2023-04-30T06:22:41.265Z,9.35
2023-04-30T06:25:07.847Z,9.02
2023-04-30T06:27:34.174Z,9.41
2023-04-30T06:30:00.480Z,9.17
2023-04-30T06:32:26.813Z,9.14
2023-04-30T06:34:53.155Z,9.37
2023-04-30T06:37:19.454Z,9.53
2023-04-30T06:39:45.748Z,8.96
2023-04-30T06:42:12.087Z,9.38
2023-04-30T06:44:38.397Z,9.36
2023-04-30T06:47:04.706Z,8.92
2023-04-30T06:49:31.027Z,9.58
2023-04-30T06:51:57.329Z,9.57
2023-04-30T06:54:23.812Z,9.52
2023-04-30T06:56:50.201Z,9.46
2023-04-30T06:59:17.417Z,9.92
2023-04-30T07:01:43.778Z,9.63
2023-04-30T07:04:10.307Z,9.93
2023-04-30T07:06:36.714Z,10.02
2023-04-30T07:09:03.050Z,9.81
2023-04-30T07:11:29.410Z,9.52
2023-04-30T07:13:55.732Z,9.55
2023-04-30T07:16:22.054Z,9.37
2023-04-30T07:18:48.468Z,9.50
2023-04-30T07:21:14.773Z,9.46
2023-04-30T07:23:41.091Z,9.65
2023-04-30T07:26:07.413Z,9.38
2023-04-30T07:28:33.717Z,9.41
2023-04-30T07:31:00.110Z,9.13
2023-04-30T07:33:26.450Z,9.20
2023-04-30T07:35:52.757Z,9.21
2023-04-30T07:38:19.084Z,9.00
2023-04-30T07:40:45.405Z,9.54
2023-04-30T07:43:11.704Z,9.20
2023-04-30T07:45:38.016Z,9.20
2023-04-30T07:48:04.371Z,8.84
2023-04-30T07:50:30.693Z,9.06
2023-04-30T07:52:56.991Z,9.13
2023-04-30T07:55:23.328Z,8.86
2023-04-30T07:57:49.638Z,8.73
2023-04-30T08:00:15.956Z,8.54
2023-04-30T08:02:42.600Z,8.78
2023-04-30T08:05:09.112Z,8.82
2023-04-30T08:07:35.405Z,8.88
2023-04-30T08:10:01.727Z,8.93
2023-04-30T08:12:28.025Z,9.10
2023-04-30T08:14:54.306Z,8.87
2023-04-30T08:17:20.663Z,8.66
2023-04-30T08:19:46.961Z,8.48
2023-04-30T08:22:13.255Z,8.50
2023-04-30T08:24:39.572Z,8.91
2023-04-30T08:27:05.867Z,8.34
2023-04-30T08:29:32.165Z,8.30
2023-04-30T08:31:58.523Z,8.23
2023-04-30T08:34:24.917Z,8.12
2023-04-30T08:36:51.201Z,8.10
2023-04-30T08:39:17.525Z,8.44
2023-04-30T08:41:43.824Z,8.43
2023-04-30T08:44:10.115Z,8.52
2023-04-30T08:46:36.487Z,8.37
2023-04-30T08:49:02.825Z,8.22
2023-04-30T08:51:29.127Z,8.36
2023-04-30T08:53:55.438Z,8.29
2023-04-30T08:56:23.121Z,8.26
2023-04-30T08:58:51.051Z,8.45
2023-04-30T09:01:17.441Z,8.03
2023-04-30T09:03:43.945Z,7.85
2023-04-30T09:06:10.340Z,8.42
2023-04-30T09:08:36.683Z,8.16
2023-04-30T09:11:02.987Z,8.50
2023-04-30T09:13:29.267Z,8.31
2023-04-30T09:15:55.614Z,8.29
2023-04-30T09:18:24.932Z,7.62
2023-04-30T09:20:51.238Z,7.62
2023-04-30T09:23:17.610Z,7.54
2023-04-30T09:25:43.911Z,7.31
2023-04-30T09:28:10.215Z,7.84
2023-04-30T09:30:36.551Z,7.89
2023-04-30T09:33:02.922Z,12.89
2023-04-30T09:35:29.257Z,9.00
2023-04-30T09:37:55.800Z,7.60
2023-04-30T09:40:22.143Z,8.33
2023-04-30T09:42:48.444Z,7.84
2023-04-30T09:45:14.763Z,8.53
2023-04-30T09:47:41.091Z,8.37
2023-04-30T09:50:07.458Z,9.25
2023-04-30T09:52:33.784Z,20.21
2023-04-30T09:55:00.114Z,13.00
2023-04-30T09:57:26.441Z,9.46
2023-04-30T09:59:53.174Z,13.65
2023-04-30T10:02:20.132Z,12.69
2023-04-30T10:04:46.445Z,9.43
2023-04-30T10:07:15.401Z,8.71
2023-04-30T10:09:42.327Z,7.58
2023-04-30T10:12:08.619Z,7.52
2023-04-30T10:14:34.947Z,7.45
2023-04-30T10:17:01.291Z,7.22
2023-04-30T10:19:27.621Z,7.11
2023-04-30T10:21:53.926Z,6.93
2023-04-30T10:24:20.234Z,6.66
2023-04-30T10:26:46.542Z,7.00
2023-04-30T10:29:12.893Z,6.56
2023-04-30T10:31:39.235Z,7.20
2023-04-30T10:34:05.561Z,6.66
2023-04-30T10:36:31.889Z,6.29
2023-04-30T10:38:58.164Z,6.50
2023-04-30T10:41:24.441Z,6.43
2023-04-30T10:43:50.732Z,5.86
2023-04-30T10:46:17.095Z,5.76
2023-04-30T10:48:43.400Z,6.10
2023-04-30T10:51:09.709Z,6.15
2023-04-30T10:53:35.990Z,6.07
2023-04-30T10:56:02.272Z,5.42
2023-04-30T10:58:28.576Z,6.11
2023-04-30T11:00:54.851Z,6.28
2023-04-30T11:03:21.125Z,6.08
2023-04-30T11:05:47.457Z,6.09
2023-04-30T11:08:13.867Z,5.65
2023-04-30T11:10:40.157Z,5.53
2023-04-30T11:13:06.508Z,5.87
2023-04-30T11:15:32.854Z,5.93
2023-04-30T11:17:59.255Z,5.72
2023-04-30T11:20:25.586Z,5.99
2023-04-30T11:22:51.866Z,5.37
2023-04-30T11:25:18.156Z,5.74
2023-04-30T11:27:44.451Z,5.42
2023-04-30T11:30:10.801Z,5.46
2023-04-30T11:32:37.245Z,5.04
2023-04-30T11:35:03.717Z,5.21
2023-04-30T11:37:30.013Z,5.28
2023-04-30T11:39:56.572Z,5.18
2023-04-30T11:42:23.032Z,4.78
2023-04-30T11:44:49.343Z,4.90
2023-04-30T11:47:15.794Z,5.82
2023-04-30T11:49:42.124Z,6.98
2023-04-30T11:52:08.436Z,5.27
2023-04-30T11:54:34.755Z,5.36
2023-04-30T11:57:01.095Z,5.17
2023-04-30T11:59:27.386Z,4.87
2023-04-30T12:01:53.728Z,4.73
2023-04-30T12:04:20.131Z,4.67
2023-04-30T12:06:46.506Z,5.10
2023-04-30T12:09:12.838Z,6.72
2023-04-30T12:11:39.196Z,10.30
2023-04-30T12:14:05.622Z,6.09
2023-04-30T12:16:32.052Z,5.86
2023-04-30T12:18:58.803Z,7.93
2023-04-30T12:21:25.165Z,9.14
2023-04-30T12:23:51.459Z,6.98
2023-04-30T12:26:17.845Z,6.26
2023-04-30T12:28:44.296Z,5.73
2023-04-30T12:31:10.591Z,6.09
2023-04-30T12:33:36.917Z,5.50
2023-04-30T12:36:03.222Z,5.41
2023-04-30T12:38:29.520Z,8.46
2023-04-30T12:40:55.865Z,6.74
2023-04-30T12:43:22.154Z,6.72
2023-04-30T12:45:48.545Z,6.28
2023-04-30T12:48:14.984Z,5.30
2023-04-30T12:50:41.354Z,7.57
2023-04-30T12:53:07.697Z,7.19
2023-04-30T12:55:34.077Z,4.82
2023-04-30T12:58:00.366Z,4.01
2023-04-30T13:00:26.661Z,5.32
2023-04-30T13:02:53.067Z,5.04
2023-04-30T13:05:19.455Z,4.36
2023-04-30T13:07:45.748Z,3.78
2023-04-30T13:10:12.073Z,3.84
2023-04-30T13:12:38.356Z,4.05
2023-04-30T13:15:04.664Z,4.16
2023-04-30T13:17:31.035Z,4.23
2023-04-30T13:19:57.527Z,4.12
2023-04-30T13:22:23.945Z,4.69
2023-04-30T13:24:50.250Z,4.23
2023-04-30T13:27:16.542Z,4.24
2023-04-30T13:29:42.846Z,4.24
2023-04-30T13:32:09.155Z,4.00
2023-04-30T13:34:35.454Z,3.89
2023-04-30T13:37:01.752Z,3.80
2023-04-30T13:39:28.073Z,3.80
2023-04-30T13:41:54.374Z,3.84
2023-04-30T13:44:20.666Z,3.75
2023-04-30T13:46:47.057Z,4.01
2023-04-30T13:49:13.426Z,4.17
2023-04-30T13:51:39.753Z,3.86
2023-04-30T13:54:06.088Z,3.91
2023-04-30T13:56:32.389Z,4.09
2023-04-30T13:58:58.684Z,4.06
2023-04-30T14:01:25.070Z,4.61
2023-04-30T14:03:51.478Z,4.17
2023-04-30T14:06:17.862Z,5.03
2023-04-30T14:08:44.224Z,4.79
2023-04-30T14:11:10.541Z,4.39
2023-04-30T14:13:36.842Z,4.10
2023-04-30T14:16:03.236Z,4.66
2023-04-30T14:18:29.620Z,4.70
2023-04-30T14:20:55.924Z,4.59
2023-04-30T14:23:23.149Z,4.39
2023-04-30T14:25:49.796Z,4.63
2023-04-30T14:28:16.081Z,4.63
2023-04-30T14:30:42.417Z,4.48
2023-04-30T14:33:09.125Z,4.50
2023-04-30T14:35:35.415Z,4.72
2023-04-30T14:38:01.737Z,5.05
2023-04-30T14:40:28.034Z,4.72
2023-04-30T14:42:54.332Z,4.70
2023-04-30T14:45:20.665Z,4.54
2023-04-30T14:47:47.009Z,4.68
2023-04-30T14:50:13.558Z,4.66
2023-04-30T14:52:39.957Z,4.49
2023-04-30T14:55:06.262Z,4.57
2023-04-30T14:57:32.566Z,4.76
2023-04-30T14:59:58.886Z,4.65
2023-04-30T15:02:25.248Z,4.62
2023-04-30T15:04:51.615Z,5.09
2023-04-30T15:07:17.945Z,4.56
2023-04-30T15:09:44.239Z,4.38
2023-04-30T15:12:10.522Z,4.56
2023-04-30T15:14:36.855Z,4.35
2023-04-30T15:17:03.141Z,4.26
2023-04-30T15:19:29.534Z,4.47
2023-04-30T15:21:55.845Z,4.31
2023-04-30T15:24:22.215Z,4.29
2023-04-30T15:26:48.531Z,4.05
2023-04-30T15:29:14.853Z,4.25
2023-04-30T15:31:41.296Z,4.61
2023-04-30T15:34:07.645Z,4.29
2023-04-30T15:36:33.975Z,4.68
2023-04-30T15:39:00.265Z,4.35
2023-04-30T15:41:26.558Z,4.19
2023-04-30T15:43:53.277Z,4.36
2023-04-30T15:46:19.784Z,4.36
2023-04-30T15:48:46.127Z,4.07
2023-04-30T15:51:12.462Z,4.45
2023-04-30T15:53:38.885Z,4.61
2023-04-30T15:56:05.207Z,4.04
2023-04-30T15:58:31.559Z,3.99
2023-04-30T16:00:57.863Z,4.00
2023-04-30T16:03:24.374Z,3.94
2023-04-30T16:05:50.803Z,4.12
2023-04-30T16:08:17.099Z,4.29
2023-04-30T16:10:43.399Z,3.77
2023-04-30T16:13:09.707Z,3.88
2023-04-30T16:15:36.058Z,3.96
2023-04-30T16:18:02.516Z,3.76
2023-04-30T16:20:29.248Z,4.03
2023-04-30T16:22:55.579Z,3.66
2023-04-30T16:25:21.875Z,3.86
2023-04-30T16:27:48.193Z,3.79
2023-04-30T16:30:14.506Z,3.96
2023-04-30T16:32:40.867Z,3.72
2023-04-30T16:35:07.207Z,3.95
2023-04-30T16:37:33.499Z,3.95
2023-04-30T16:39:59.789Z,4.11
2023-04-30T16:42:26.114Z,3.85
2023-04-30T16:44:52.410Z,3.66
2023-04-30T16:47:18.712Z,3.94
2023-04-30T16:49:45.047Z,3.87
2023-04-30T16:52:11.346Z,3.66
2023-04-30T16:54:37.626Z,3.86
2023-04-30T16:57:03.941Z,3.82
2023-04-30T16:59:30.262Z,3.89
2023-04-30T17:01:56.564Z,4.30
2023-04-30T17:04:22.915Z,3.90
2023-04-30T17:06:49.417Z,4.41
2023-04-30T17:09:15.801Z,4.02
2023-04-30T17:11:42.143Z,3.75
2023-04-30T17:14:08.454Z,3.85
2023-04-30T17:16:34.877Z,3.71
2023-04-30T17:19:01.246Z,3.78
2023-04-30T17:21:27.536Z,3.74
2023-04-30T17:23:53.866Z,4.08
2023-04-30T17:26:20.193Z,4.19
2023-04-30T17:28:46.475Z,3.86
2023-04-30T17:31:12.812Z,3.98
2023-04-30T17:33:39.630Z,3.99
2023-04-30T17:36:06.719Z,4.16
2023-04-30T17:38:33.019Z,3.88
2023-04-30T17:40:59.364Z,3.76
2023-04-30T17:43:25.672Z,4.16
2023-04-30T17:45:51.991Z,4.03
2023-04-30T17:48:18.383Z,4.75
2023-04-30T17:50:44.680Z,4.27
2023-04-30T17:53:10.980Z,4.15
2023-04-30T17:55:37.300Z,3.70
2023-04-30T17:58:03.601Z,4.22
2023-04-30T18:00:29.899Z,4.29
2023-04-30T18:02:56.339Z,4.25
2023-04-30T18:05:22.693Z,4.34
2023-04-30T18:07:49.014Z,5.41
2023-04-30T18:10:15.371Z,5.04
2023-04-30T18:12:41.661Z,5.84
2023-04-30T18:15:07.982Z,6.29
2023-04-30T18:17:36.463Z,5.81
2023-04-30T18:20:03.587Z,5.16
2023-04-30T18:22:29.894Z,4.67
2023-04-30T18:24:56.233Z,4.25
2023-04-30T18:27:22.551Z,4.21
2023-04-30T18:29:48.856Z,4.02
2023-04-30T18:32:15.300Z,4.20
2023-04-30T18:34:41.694Z,3.95
2023-04-30T18:37:08.095Z,3.85
2023-04-30T18:39:34.437Z,4.12
2023-04-30T18:42:00.721Z,3.81
2023-04-30T18:44:27.017Z,3.69
2023-04-30T18:46:53.343Z,3.69
2023-04-30T18:49:19.648Z,3.79
2023-04-30T18:51:45.938Z,3.79
2023-04-30T18:54:12.242Z,3.86
2023-04-30T18:56:38.546Z,3.66
2023-04-30T18:59:05.284Z,3.87
2023-04-30T19:01:31.690Z,3.94
2023-04-30T19:03:58.086Z,3.98
2023-04-30T19:06:24.504Z,4.02
2023-04-30T19:08:50.938Z,3.70
2023-04-30T19:11:17.239Z,3.69
2023-04-30T19:13:43.711Z,3.90
2023-04-30T19:16:10.117Z,4.02
2023-04-30T19:18:36.470Z,3.93
2023-04-30T19:21:02.778Z,4.01
2023-04-30T19:23:29.102Z,3.93
2023-04-30T19:25:55.406Z,4.08
2023-04-30T19:28:21.697Z,4.00
2023-04-30T19:30:48.055Z,4.16
2023-04-30T19:33:14.402Z,4.19
2023-04-30T19:35:40.758Z,4.45
2023-04-30T19:38:07.103Z,4.08
2023-04-30T19:40:33.396Z,3.97
2023-04-30T19:42:59.701Z,4.11
2023-04-30T19:45:26.168Z,4.60
2023-04-30T19:47:52.563Z,4.48
2023-04-30T19:50:18.874Z,4.11
2023-04-30T19:52:45.190Z,3.99
2023-04-30T19:55:11.485Z,4.06
2023-04-30T19:57:37.780Z,4.25
2023-04-30T20:00:04.120Z,4.06
2023-04-30T20:02:30.480Z,4.56
2023-04-30T20:04:57.095Z,4.33
2023-04-30T20:07:23.452Z,4.45
2023-04-30T20:09:49.746Z,4.59
2023-04-30T20:12:16.038Z,4.58
2023-04-30T20:14:42.348Z,4.69
2023-04-30T20:17:08.649Z,4.69
2023-04-30T20:19:34.953Z,4.55
2023-04-30T20:22:01.329Z,4.48
2023-04-30T20:24:27.630Z,4.49
2023-04-30T20:26:53.942Z,4.41
2023-04-30T20:29:20.259Z,4.68
2023-04-30T20:31:46.635Z,4.89
2023-04-30T20:34:12.962Z,4.83
2023-04-30T20:36:39.290Z,4.58
2023-04-30T20:39:05.587Z,4.72
2023-04-30T20:41:31.911Z,4.93
2023-04-30T20:43:58.227Z,4.86
2023-04-30T20:46:24.794Z,5.05
2023-04-30T20:48:51.111Z,5.10
2023-04-30T20:51:17.429Z,4.91
2023-04-30T20:53:43.735Z,4.91
2023-04-30T20:56:10.029Z,5.05
2023-04-30T20:58:36.347Z,5.02
2023-04-30T21:01:02.664Z,5.19
2023-04-30T21:03:29.015Z,5.29
2023-04-30T21:05:55.453Z,5.17
2023-04-30T21:08:21.923Z,4.90
2023-04-30T21:10:48.226Z,5.16
2023-04-30T21:13:14.543Z,5.36
2023-04-30T21:15:40.850Z,5.15
2023-04-30T21:18:07.203Z,5.24
2023-04-30T21:20:33.602Z,5.15
2023-04-30T21:22:59.952Z,4.90
2023-04-30T21:25:26.350Z,5.10
2023-04-30T21:27:52.746Z,5.25
2023-04-30T21:30:19.055Z,5.18
2023-04-30T21:32:45.474Z,5.05
2023-04-30T21:35:12.000Z,5.14
2023-04-30T21:37:38.359Z,5.33
2023-04-30T21:40:04.891Z,5.21
2023-04-30T21:42:31.250Z,5.13
2023-04-30T21:44:58.724Z,5.12
2023-04-30T21:47:25.032Z,5.17
2023-04-30T21:49:51.411Z,5.01
2023-04-30T21:52:17.711Z,5.17
2023-04-30T21:54:44.012Z,5.16
2023-04-30T21:57:10.345Z,5.41
2023-04-30T21:59:36.646Z,5.42
2023-04-30T22:02:07.301Z,5.52
2023-04-30T22:04:39.571Z,5.57
2023-04-30T22:07:05.872Z,5.23
2023-04-30T22:09:32.160Z,5.13
2023-04-30T22:11:58.485Z,5.20
2023-04-30T22:14:28.102Z,4.93
2023-04-30T22:16:54.451Z,5.19
2023-04-30T22:19:20.818Z,5.33
2023-04-30T22:21:47.111Z,5.84
2023-04-30T22:24:13.419Z,5.66
2023-04-30T22:26:39.738Z,5.63
2023-04-30T22:29:06.058Z,5.55
2023-04-30T22:31:32.387Z,5.61
2023-04-30T22:33:58.752Z,5.68
2023-04-30T22:36:25.052Z,5.58
2023-04-30T22:38:51.360Z,5.45
2023-04-30T22:41:17.686Z,5.60
2023-04-30T22:43:43.982Z,5.67
2023-04-30T22:46:10.279Z,5.66
2023-04-30T22:48:36.600Z,5.84
2023-04-30T22:51:05.924Z,5.47
2023-04-30T22:53:32.232Z,5.99
2023-04-30T22:55:58.588Z,7.02
2023-04-30T22:58:24.900Z,7.41
2023-04-30T23:00:51.230Z,7.47
2023-04-30T23:03:17.582Z,6.99
2023-04-30T23:05:43.866Z,5.98
2023-04-30T23:08:10.239Z,6.43
2023-04-30T23:10:36.572Z,6.37
2023-04-30T23:13:02.870Z,6.33
2023-04-30T23:15:29.182Z,6.24
2023-04-30T23:17:55.523Z,6.34
2023-04-30T23:20:21.833Z,6.36
2023-04-30T23:22:48.149Z,6.33
2023-04-30T23:25:14.469Z,6.12
2023-04-30T23:27:40.772Z,6.34
2023-04-30T23:30:07.074Z,6.25
2023-04-30T23:32:33.544Z,6.30
2023-04-30T23:34:59.901Z,6.42
2023-04-30T23:37:26.199Z,6.39
2023-04-30T23:39:52.567Z,6.56
2023-04-30T23:42:18.878Z,6.81
2023-04-30T23:44:45.176Z,6.65
2023-04-30T23:47:11.541Z,6.52
2023-04-30T23:49:37.851Z,6.56
2023-04-30T23:52:04.146Z,6.48
2023-04-30T23:54:30.468Z,6.92
2023-04-30T23:56:56.766Z,6.61
2023-04-30T23:59:23.069Z,6.49
